Time;durP1;ratioP1;P1;durP2;ratioP2;P2;SDS_P1;SDS_P2;PMS_P1;PMS_P2;Temp;Humidity;BMP_temperature;BMP_pressure;BME280_temperature;BME280_humidity;BME280_pressure;Samples;Min_cycle;Max_cycle;Signal;HPM_P1;HPM_P2
2023/07/29 00:00:10;;;;;;;;;;;22.30;99.90;;;;;;5093369;28;20146;-72
2023/07/29 00:02:37;;;;;;;;;;;22.90;99.90;;;;;;5092339;28;20161;-71
2023/07/29 00:05:04;;;;;;;;;;;23.40;99.90;;;;;;5093464;28;20641;-72
2023/07/29 00:07:30;;;;;;;;;;;24.10;99.90;;;;;;5092919;28;20184;-73
2023/07/29 00:09:58;;;;;;;;;;;24.30;99.90;;;;;;5091335;28;20181;-72
2023/07/29 00:12:25;;;;;;;;;;;24.10;99.90;;;;;;5092699;28;20164;-73
2023/07/29 00:14:51;;;;;;;;;;;24.80;99.90;;;;;;5092416;28;20247;-72
2023/07/29 00:17:19;;;;;;;;;;;25.10;99.90;;;;;;5091171;28;20135;-72
2023/07/29 00:19:46;;;;;;;;;;;25.30;99.90;;;;;;5089070;28;20617;-72
2023/07/29 00:22:13;;;;;;;;;;;24.40;99.90;;;;;;5089503;28;20171;-73
2023/07/29 00:24:41;;;;;;;;;;;24.40;99.90;;;;;;5091876;28;20542;-72
2023/07/29 00:27:07;;;;;;;;;;;24.60;99.90;;;;;;5092560;28;20206;-72
2023/07/29 00:29:34;;;;;;;;;;;24.40;99.90;;;;;;5074113;28;20228;-72
2023/07/29 00:32:01;;;;;;;;;;;25.00;99.90;;;;;;5091910;28;20147;-73
2023/07/29 00:34:28;;;;;;;;;;;24.90;99.90;;;;;;5091825;28;20166;-73
2023/07/29 00:36:54;;;;;;;;;;;24.80;99.90;;;;;;5092563;28;20215;-71
2023/07/29 00:39:22;;;;;;;;;;;24.80;99.90;;;;;;5073953;28;20180;-72
2023/07/29 00:41:50;;;;;;;;;;;23.70;99.90;;;;;;5092214;28;20161;-73
2023/07/29 00:44:16;;;;;;;;;;;24.30;99.90;;;;;;5092083;28;20211;-72
2023/07/29 00:46:45;;;;;;;;;;;25.10;99.90;;;;;;5091582;28;20151;-73
2023/07/29 00:49:12;;;;;;;;;;;25.60;99.90;;;;;;5080603;28;20166;-71
2023/07/29 00:51:39;;;;;;;;;;;25.80;99.90;;;;;;5088320;28;20188;-71
2023/07/29 00:54:05;;;;;;;;;;;25.90;99.90;;;;;;5085648;28;20181;-72
2023/07/29 00:56:32;;;;;;;;;;;25.50;99.90;;;;;;5091413;28;20176;-72
2023/07/29 00:59:01;;;;;;;;;;;25.40;99.90;;;;;;5091829;28;20146;-72
2023/07/29 01:01:29;;;;;;;;;;;24.80;99.90;;;;;;5090935;28;20174;-71
2023/07/29 01:07:14;;;;;;;;;;;23.30;99.90;;;;;;5090893;28;20211;-72
2023/07/29 01:09:44;;;;;;;;;;;23.00;99.90;;;;;;5089756;28;20218;-71
2023/07/29 01:12:29;;;;;;;;;;;22.90;99.90;;;;;;5071558;28;20156;-72
2023/07/29 01:15:00;;;;;;;;;;;22.50;99.90;;;;;;5071447;28;20237;-72
2023/07/29 01:17:32;;;;;;;;;;;22.10;99.90;;;;;;5070667;28;20219;-73
2023/07/29 01:20:07;;;;;;;;;;;22.30;99.90;;;;;;5071176;28;20237;-71
2023/07/29 01:22:39;;;;;;;;;;;22.70;99.90;;;;;;5080892;28;20180;-73
2023/07/29 01:25:06;;;;;;;;;;;22.80;99.90;;;;;;5091881;28;20227;-73
2023/07/29 01:27:33;;;;;;;;;;;22.70;99.90;;;;;;5093092;28;20228;-72
2023/07/29 01:30:01;;;;;;;;;;;22.30;99.90;;;;;;5093277;28;20156;-72
2023/07/29 01:32:30;;;;;;;;;;;21.90;99.90;;;;;;5061764;28;20606;-72
2023/07/29 01:35:03;;;;;;;;;;;21.40;99.90;;;;;;5092858;28;20167;-73
2023/07/29 01:37:31;;;;;;;;;;;21.50;99.90;;;;;;5085426;28;20191;-72
2023/07/29 01:39:59;;;;;;;;;;;21.50;99.90;;;;;;5090949;28;20668;-72
2023/07/29 01:42:26;;;;;;;;;;;21.50;99.90;;;;;;5091672;28;20140;-72
2023/07/29 01:44:54;;;;;;;;;;;21.50;99.90;;;;;;5091203;28;20199;-72
2023/07/29 01:47:22;;;;;;;;;;;21.90;99.90;;;;;;5090958;28;20204;-73
2023/07/29 01:49:49;;;;;;;;;;;22.60;99.90;;;;;;5090710;28;20162;-73
2023/07/29 01:52:16;;;;;;;;;;;22.90;99.90;;;;;;5091387;28;20590;-72
2023/07/29 01:54:42;;;;;;;;;;;23.20;99.90;;;;;;5090574;28;20183;-73
2023/07/29 01:57:09;;;;;;;;;;;23.30;99.90;;;;;;5073303;28;20237;-73
2023/07/29 01:59:36;;;;;;;;;;;23.30;99.90;;;;;;5072547;28;20181;-73
2023/07/29 02:02:02;;;;;;;;;;;23.70;99.90;;;;;;5090553;28;20164;-72
2023/07/29 02:04:29;;;;;;;;;;;23.70;99.90;;;;;;5073188;28;20519;-73
2023/07/29 02:06:56;;;;;;;;;;;23.70;99.90;;;;;;5090954;28;20634;-72
2023/07/29 02:09:22;;;;;;;;;;;24.70;99.90;;;;;;5090942;28;20182;-73
2023/07/29 02:11:49;;;;;;;;;;;26.00;99.90;;;;;;5091001;28;20263;-73
2023/07/29 02:14:16;;;;;;;;;;;26.40;99.90;;;;;;5091028;28;20157;-73
2023/07/29 02:16:42;;;;;;;;;;;25.40;99.90;;;;;;5090687;28;20229;-74
2023/07/29 02:19:09;;;;;;;;;;;24.60;99.90;;;;;;5090749;28;20568;-73
2023/07/29 02:21:36;;;;;;;;;;;23.60;99.90;;;;;;5090620;28;20167;-72
2023/07/29 02:24:02;;;;;;;;;;;23.20;99.90;;;;;;5090311;28;20155;-71
2023/07/29 02:26:29;;;;;;;;;;;23.00;99.90;;;;;;5090985;28;20712;-72
2023/07/29 02:28:56;;;;;;;;;;;22.80;99.90;;;;;;5091834;28;20667;-70
2023/07/29 02:31:24;;;;;;;;;;;22.80;99.90;;;;;;5092126;28;20526;-76
2023/07/29 02:33:51;;;;;;;;;;;23.70;99.90;;;;;;5092097;28;20144;-73
2023/07/29 02:36:18;;;;;;;;;;;24.70;99.90;;;;;;5094017;28;20158;-72
2023/07/29 02:38:45;;;;;;;;;;;25.70;99.90;;;;;;5096926;28;20143;-72
2023/07/29 02:41:15;;;;;;;;;;;25.90;96.30;;;;;;5071900;28;20532;-71
2023/07/29 02:43:43;;;;;;;;;;;25.70;96.30;;;;;;5088951;28;20204;-71
2023/07/29 02:46:10;;;;;;;;;;;25.40;95.20;;;;;;5096257;28;20166;-71
2023/07/29 02:48:36;;;;;;;;;;;25.30;96.80;;;;;;5095872;28;20673;-71
2023/07/29 02:51:03;;;;;;;;;;;24.60;98.30;;;;;;5092525;28;20156;-73
2023/07/29 02:53:30;;;;;;;;;;;24.40;99.50;;;;;;5095787;28;20149;-72
2023/07/29 02:55:56;;;;;;;;;;;24.10;99.90;;;;;;5078034;28;20261;-72
2023/07/29 02:58:23;;;;;;;;;;;24.80;99.90;;;;;;5095639;28;20151;-72
2023/07/29 03:00:50;;;;;;;;;;;25.90;98.30;;;;;;5091035;28;20591;-73
2023/07/29 03:03:16;;;;;;;;;;;26.70;95.10;;;;;;5096692;28;20196;-72
2023/07/29 03:05:43;;;;;;;;;;;27.00;91.70;;;;;;5095892;28;20267;-72
2023/07/29 03:08:10;;;;;;;;;;;27.50;88.60;;;;;;5095333;28;20171;-72
2023/07/29 03:10:36;;;;;;;;;;;27.70;82.20;;;;;;5095574;28;20570;-72
2023/07/29 03:13:03;;;;;;;;;;;26.90;81.60;;;;;;5095655;28;20182;-72
2023/07/29 03:15:30;;;;;;;;;;;26.00;88.40;;;;;;5095450;28;20626;-72
2023/07/29 03:17:56;;;;;;;;;;;25.20;90.70;;;;;;5095686;28;20148;-72
2023/07/29 03:20:23;;;;;;;;;;;24.00;93.50;;;;;;5096142;28;20614;-72
2023/07/29 03:22:50;;;;;;;;;;;24.00;96.80;;;;;;5095238;28;20185;-72
2023/07/29 03:25:16;;;;;;;;;;;24.00;98.20;;;;;;5094974;28;20172;-72
2023/07/29 03:27:43;;;;;;;;;;;24.00;98.20;;;;;;5095123;28;20180;-72
2023/07/29 03:30:10;;;;;;;;;;;24.10;99.90;;;;;;5095181;28;20135;-72
2023/07/29 03:32:39;;;;;;;;;;;24.10;99.90;;;;;;5091581;28;20517;-72
2023/07/29 03:35:06;;;;;;;;;;;24.20;98.40;;;;;;5094939;28;20474;-72
2023/07/29 03:37:33;;;;;;;;;;;24.20;98.30;;;;;;5077138;28;20146;-72
2023/07/29 03:39:59;;;;;;;;;;;24.30;99.50;;;;;;5095355;28;20166;-72
2023/07/29 03:42:26;;;;;;;;;;;24.60;98.30;;;;;;5074287;28;20173;-70
2023/07/29 03:44:53;;;;;;;;;;;24.70;99.40;;;;;;5093518;28;20813;-71
2023/07/29 03:47:19;;;;;;;;;;;25.00;98.90;;;;;;5092999;28;20661;-72
2023/07/29 03:49:46;;;;;;;;;;;25.30;98.30;;;;;;5093006;28;20177;-72
2023/07/29 03:52:13;;;;;;;;;;;25.30;96.80;;;;;;5093292;28;20179;-71
2023/07/29 03:54:40;;;;;;;;;;;25.30;96.70;;;;;;5093934;28;20146;-71
2023/07/29 03:57:06;;;;;;;;;;;25.20;98.00;;;;;;5093019;28;20152;-72
2023/07/29 03:59:33;;;;;;;;;;;25.20;94.30;;;;;;5092261;28;20173;-71
2023/07/29 04:02:00;;;;;;;;;;;25.20;95.90;;;;;;5092825;28;20150;-71
2023/07/29 04:04:26;;;;;;;;;;;25.10;95.80;;;;;;5093083;28;20242;-72
2023/07/29 04:06:53;;;;;;;;;;;25.20;95.90;;;;;;5074891;28;20176;-72
2023/07/29 04:09:20;;;;;;;;;;;24.80;96.90;;;;;;5092920;28;20168;-72
2023/07/29 04:11:46;;;;;;;;;;;24.70;95.10;;;;;;5092502;28;20188;-71
2023/07/29 04:14:13;;;;;;;;;;;24.40;96.70;;;;;;5074640;28;20172;-71
2023/07/29 04:16:40;;;;;;;;;;;24.40;96.60;;;;;;5093134;28;20218;-71
2023/07/29 04:19:06;;;;;;;;;;;24.40;97.20;;;;;;5092503;28;20177;-72
2023/07/29 04:21:33;;;;;;;;;;;24.20;97.20;;;;;;5092974;28;20159;-71
2023/07/29 04:24:00;;;;;;;;;;;24.20;97.80;;;;;;5092666;28;20167;-70
2023/07/29 04:26:27;;;;;;;;;;;24.00;99.90;;;;;;5092036;28;20171;-70
2023/07/29 04:28:53;;;;;;;;;;;24.10;98.10;;;;;;5092127;28;20374;-71
2023/07/29 04:31:20;;;;;;;;;;;24.00;97.90;;;;;;5092331;28;20140;-71
2023/07/29 04:33:47;;;;;;;;;;;23.80;99.00;;;;;;5078141;28;20171;-71
2023/07/29 04:36:13;;;;;;;;;;;23.50;99.90;;;;;;5086923;28;20164;-72
2023/07/29 04:38:40;;;;;;;;;;;23.50;99.90;;;;;;5092126;28;20192;-71
2023/07/29 04:41:08;;;;;;;;;;;23.40;99.90;;;;;;5092014;28;20180;-72
2023/07/29 04:43:35;;;;;;;;;;;23.60;99.90;;;;;;5091621;28;20219;-71
2023/07/29 04:46:02;;;;;;;;;;;23.50;99.90;;;;;;5091834;28;20174;-71
2023/07/29 04:48:29;;;;;;;;;;;23.50;99.90;;;;;;5092062;28;20195;-72
2023/07/29 04:50:56;;;;;;;;;;;23.60;99.90;;;;;;5077933;28;20167;-71
2023/07/29 04:53:22;;;;;;;;;;;23.70;99.90;;;;;;5075248;28;20106;-71
2023/07/29 04:55:49;;;;;;;;;;;23.70;99.90;;;;;;5092254;28;20240;-72
2023/07/29 04:58:16;;;;;;;;;;;23.80;99.90;;;;;;5093027;28;20316;-73
2023/07/29 05:00:46;;;;;;;;;;;23.90;99.90;;;;;;5093565;28;20225;-72
2023/07/29 05:03:16;;;;;;;;;;;24.10;99.80;;;;;;5093892;28;20542;-73
2023/07/29 05:05:43;;;;;;;;;;;24.00;99.30;;;;;;5088164;28;20239;-71
2023/07/29 05:08:13;;;;;;;;;;;24.10;98.60;;;;;;5074354;28;20200;-69
2023/07/29 05:10:42;;;;;;;;;;;24.20;99.00;;;;;;5093633;28;20185;-72
2023/07/29 05:13:12;;;;;;;;;;;23.90;98.20;;;;;;5093966;28;20141;-70
2023/07/29 05:15:39;;;;;;;;;;;23.50;99.90;;;;;;5094238;28;20162;-72
2023/07/29 05:18:06;;;;;;;;;;;23.30;99.90;;;;;;5094003;28;20184;-72
2023/07/29 05:20:32;;;;;;;;;;;23.30;99.90;;;;;;5094510;28;20167;-72
2023/07/29 05:22:59;;;;;;;;;;;23.40;99.90;;;;;;5094480;28;20151;-72
2023/07/29 05:25:26;;;;;;;;;;;23.80;99.90;;;;;;5076354;28;20257;-72
2023/07/29 05:27:52;;;;;;;;;;;24.20;99.90;;;;;;5093715;28;20293;-72
2023/07/29 05:30:19;;;;;;;;;;;24.10;98.70;;;;;;5093792;28;20130;-71
2023/07/29 05:32:46;;;;;;;;;;;23.60;99.90;;;;;;5093769;28;20737;-72
2023/07/29 05:35:12;;;;;;;;;;;23.20;99.90;;;;;;5093461;28;20585;-72
2023/07/29 05:37:42;;;;;;;;;;;22.90;99.90;;;;;;5093343;28;20619;-71
2023/07/29 05:40:09;;;;;;;;;;;22.80;99.90;;;;;;5093666;28;20238;-72
2023/07/29 05:42:36;;;;;;;;;;;22.60;99.90;;;;;;5085682;28;20216;-72
2023/07/29 05:45:06;;;;;;;;;;;22.50;99.90;;;;;;5079156;28;20153;-70
2023/07/29 05:47:33;;;;;;;;;;;22.50;99.90;;;;;;5091922;28;20206;-71
2023/07/29 05:50:04;;;;;;;;;;;22.50;99.90;;;;;;5094964;28;20650;-71
2023/07/29 05:52:31;;;;;;;;;;;22.60;99.90;;;;;;5076400;28;20273;-71
2023/07/29 05:54:58;;;;;;;;;;;22.50;99.90;;;;;;5093097;28;20203;-72
2023/07/29 05:57:24;;;;;;;;;;;22.50;99.90;;;;;;5092570;28;20148;-72
2023/07/29 05:59:51;;;;;;;;;;;22.40;99.90;;;;;;5064038;28;20248;-72
2023/07/29 06:02:21;;;;;;;;;;;22.30;99.90;;;;;;5091526;28;20159;-71
2023/07/29 06:04:48;;;;;;;;;;;22.30;99.90;;;;;;5091451;28;20183;-71
2023/07/29 06:07:15;;;;;;;;;;;22.30;99.90;;;;;;5089901;28;20147;-70
2023/07/29 06:09:41;;;;;;;;;;;22.30;99.90;;;;;;5089931;28;20159;-72
2023/07/29 06:12:12;;;;;;;;;;;22.40;99.90;;;;;;5088962;28;20167;-71
2023/07/29 06:14:39;;;;;;;;;;;22.40;99.90;;;;;;5090198;28;20143;-71
2023/07/29 06:17:06;;;;;;;;;;;22.30;99.90;;;;;;5090493;28;20165;-71
2023/07/29 06:19:33;;;;;;;;;;;22.20;99.90;;;;;;5072325;28;20252;-71
2023/07/29 06:22:04;;;;;;;;;;;22.10;99.90;;;;;;5090080;28;20170;-72
2023/07/29 06:24:30;;;;;;;;;;;22.20;99.90;;;;;;5072213;28;20250;-72
2023/07/29 06:26:57;;;;;;;;;;;22.10;99.90;;;;;;5090692;28;20211;-72
2023/07/29 06:29:24;;;;;;;;;;;22.10;99.90;;;;;;5071560;28;20193;-72
2023/07/29 06:31:51;;;;;;;;;;;22.00;99.90;;;;;;5090339;28;20149;-72
2023/07/29 06:34:21;;;;;;;;;;;21.90;99.90;;;;;;5074290;28;20192;-72
2023/07/29 06:36:47;;;;;;;;;;;21.70;99.90;;;;;;5082285;28;20565;-71
2023/07/29 06:39:14;;;;;;;;;;;21.50;99.90;;;;;;5074102;28;20147;-72
2023/07/29 06:41:41;;;;;;;;;;;21.30;99.90;;;;;;5092017;28;20163;-71
2023/07/29 06:44:07;;;;;;;;;;;21.20;99.90;;;;;;5092486;28;20564;-71
2023/07/29 06:46:34;;;;;;;;;;;21.10;99.90;;;;;;5092568;28;20148;-72
2023/07/29 06:49:01;;;;;;;;;;;21.10;99.90;;;;;;5091228;28;20202;-71
2023/07/29 06:51:32;;;;;;;;;;;21.00;99.90;;;;;;5092371;28;20177;-71
2023/07/29 06:53:59;;;;;;;;;;;21.00;99.90;;;;;;5091938;28;20216;-72
2023/07/29 06:56:25;;;;;;;;;;;20.90;99.90;;;;;;5092811;28;20172;-72
2023/07/29 06:58:55;;;;;;;;;;;20.90;99.90;;;;;;5092247;28;20564;-72
2023/07/29 07:01:22;;;;;;;;;;;20.80;99.90;;;;;;5074514;28;20150;-71
2023/07/29 07:03:48;;;;;;;;;;;20.60;99.90;;;;;;5091977;28;20151;-70
2023/07/29 07:06:15;;;;;;;;;;;20.30;99.90;;;;;;5091995;28;20204;-71
2023/07/29 07:08:43;;;;;;;;;;;20.10;99.90;;;;;;5064073;28;20549;-71
2023/07/29 07:14:13;;;;;;;;;;;19.70;99.90;;;;;;5072071;28;20535;-72
2023/07/29 07:16:39;;;;;;;;;;;19.50;99.90;;;;;;5072510;28;20152;-72
2023/07/29 07:19:06;;;;;;;;;;;19.30;99.90;;;;;;5072434;28;20193;-72
2023/07/29 07:21:33;;;;;;;;;;;19.10;99.90;;;;;;5072140;28;20165;-72
2023/07/29 07:23:59;;;;;;;;;;;19.00;99.90;;;;;;5074585;28;20142;-72
2023/07/29 07:26:26;;;;;;;;;;;18.80;99.90;;;;;;5075425;28;20121;-72
2023/07/29 07:28:53;;;;;;;;;;;18.70;99.90;;;;;;5084841;28;20193;-71
2023/07/29 07:31:20;;;;;;;;;;;18.60;99.90;;;;;;5077469;28;20574;-73
2023/07/29 07:33:47;;;;;;;;;;;18.60;99.90;;;;;;5095936;28;20595;-71
2023/07/29 07:36:14;;;;;;;;;;;18.50;99.90;;;;;;5095556;28;20142;-72
2023/07/29 07:38:40;;;;;;;;;;;18.30;99.90;;;;;;5095469;28;20140;-72
2023/07/29 07:41:07;;;;;;;;;;;18.10;99.90;;;;;;5095303;28;20126;-72
2023/07/29 07:43:34;;;;;;;;;;;17.90;99.90;;;;;;5095120;28;20201;-73
2023/07/29 07:46:01;;;;;;;;;;;17.70;99.90;;;;;;5095828;28;19966;-72
2023/07/29 07:48:28;;;;;;;;;;;17.60;99.90;;;;;;5095487;28;25136;-72
2023/07/29 07:50:55;;;;;;;;;;;17.50;99.90;;;;;;5086618;28;25063;-72
2023/07/29 07:53:21;;;;;;;;;;;17.40;99.90;;;;;;5075439;28;25070;-72
2023/07/29 07:55:48;;;;;;;;;;;17.30;99.90;;;;;;5076064;28;20478;-71
2023/07/29 07:58:15;;;;;;;;;;;17.30;99.90;;;;;;5082700;28;19976;-73
2023/07/29 08:00:42;;;;;;;;;;;17.20;99.90;;;;;;5074920;28;19962;-72
2023/07/29 08:03:08;;;;;;;;;;;17.20;99.90;;;;;;5084429;28;25058;-71
2023/07/29 08:05:35;;;;;;;;;;;17.10;99.90;;;;;;5094423;28;20114;-73
2023/07/29 08:08:02;;;;;;;;;;;17.00;99.90;;;;;;5094680;28;25076;-72
2023/07/29 08:10:28;;;;;;;;;;;16.90;99.90;;;;;;5094229;28;25072;-72
2023/07/29 08:12:55;;;;;;;;;;;16.80;99.90;;;;;;5085642;28;19972;-71
2023/07/29 08:15:22;;;;;;;;;;;16.80;99.90;;;;;;5084057;28;25079;-72
2023/07/29 08:17:49;;;;;;;;;;;16.70;99.90;;;;;;5089559;28;25094;-72
2023/07/29 08:20:15;;;;;;;;;;;16.60;99.90;;;;;;5086614;28;25077;-72
2023/07/29 08:22:42;;;;;;;;;;;16.50;99.90;;;;;;5082138;28;20003;-71
2023/07/29 08:25:09;;;;;;;;;;;16.40;99.90;;;;;;5084430;28;19962;-71
2023/07/29 08:27:35;;;;;;;;;;;16.40;99.90;;;;;;5084625;28;25102;-71
2023/07/29 08:30:02;;;;;;;;;;;16.30;99.90;;;;;;5084479;28;25159;-71
2023/07/29 08:32:29;;;;;;;;;;;16.20;99.90;;;;;;5083331;28;25057;-71
2023/07/29 08:34:55;;;;;;;;;;;16.10;99.90;;;;;;5084843;28;19977;-71
2023/07/29 08:37:22;;;;;;;;;;;16.10;99.90;;;;;;5081388;28;25064;-71
2023/07/29 08:39:49;;;;;;;;;;;16.00;99.90;;;;;;5085093;28;25056;-71
2023/07/29 08:42:19;;;;;;;;;;;15.90;99.90;;;;;;5081458;28;19970;-73
2023/07/29 08:44:49;;;;;;;;;;;15.90;99.90;;;;;;5075858;28;20018;-72
2023/07/29 08:47:16;;;;;;;;;;;15.80;99.90;;;;;;5078706;28;20476;-71
2023/07/29 08:49:43;;;;;;;;;;;15.80;99.90;;;;;;5106533;28;19966;-71
2023/07/29 08:52:11;;;;;;;;;;;15.70;99.90;;;;;;5106471;28;19966;-71
2023/07/29 08:54:37;;;;;;;;;;;15.70;99.90;;;;;;5089464;28;19973;-72
2023/07/29 08:57:04;;;;;;;;;;;15.60;99.90;;;;;;5073519;28;25077;-71
2023/07/29 08:59:34;;;;;;;;;;;15.50;99.90;;;;;;5073431;28;25061;-73
2023/07/29 09:02:01;;;;;;;;;;;15.40;99.90;;;;;;5073288;28;19968;-73
2023/07/29 09:04:28;;;;;;;;;;;15.30;99.90;;;;;;5089792;28;20063;-72
2023/07/29 09:06:56;;;;;;;;;;;15.20;99.90;;;;;;5092850;28;20058;-73
2023/07/29 09:09:23;;;;;;;;;;;15.20;99.90;;;;;;5093498;28;19990;-71
2023/07/29 09:11:49;;;;;;;;;;;15.10;99.90;;;;;;5093445;28;25069;-71
2023/07/29 09:14:16;;;;;;;;;;;15.10;99.90;;;;;;5093145;28;20044;-71
2023/07/29 09:16:43;;;;;;;;;;;15.10;99.90;;;;;;5092719;28;20142;-71
2023/07/29 09:19:10;;;;;;;;;;;15.00;99.90;;;;;;5092500;28;19961;-71
2023/07/29 09:21:39;;;;;;;;;;;15.00;99.90;;;;;;5067517;28;25151;-72
2023/07/29 09:24:07;;;;;;;;;;;14.90;99.90;;;;;;5075917;28;20021;-71
2023/07/29 09:26:34;;;;;;;;;;;14.90;99.90;;;;;;5092922;28;25074;-72
2023/07/29 09:29:01;;;;;;;;;;;14.80;99.90;;;;;;5074631;28;19912;-71
2023/07/29 09:31:29;;;;;;;;;;;14.80;99.90;;;;;;5092149;28;19967;-73
2023/07/29 09:34:00;;;;;;;;;;;14.70;99.90;;;;;;5092449;28;25084;-71
2023/07/29 09:36:27;;;;;;;;;;;14.60;99.90;;;;;;5092402;28;25070;-73
2023/07/29 09:38:55;;;;;;;;;;;14.50;99.90;;;;;;5092726;28;19956;-71
2023/07/29 09:41:25;;;;;;;;;;;14.50;99.90;;;;;;5092438;28;25110;-71
2023/07/29 09:43:59;;;;;;;;;;;14.50;99.90;;;;;;5092544;28;24086;-72
2023/07/29 09:46:32;;;;;;;;;;;14.40;99.90;;;;;;5073459;28;24063;-71
2023/07/29 09:48:59;;;;;;;;;;;14.40;99.90;;;;;;5093143;28;19958;-71
2023/07/29 09:51:26;;;;;;;;;;;14.30;99.90;;;;;;5093168;28;25063;-71
2023/07/29 09:53:53;;;;;;;;;;;14.10;99.90;;;;;;5073022;28;19922;-71
2023/07/29 09:56:25;;;;;;;;;;;14.00;99.90;;;;;;5092886;28;20380;-72
2023/07/29 09:58:52;;;;;;;;;;;13.90;99.90;;;;;;5094439;28;20546;-72
2023/07/29 10:01:19;;;;;;;;;;;13.90;99.90;;;;;;5092621;28;19947;-70
2023/07/29 10:03:47;;;;;;;;;;;13.80;99.90;;;;;;5092692;28;24041;-72
2023/07/29 10:06:15;;;;;;;;;;;13.80;99.90;;;;;;5092393;28;20058;-70
2023/07/29 10:08:43;;;;;;;;;;;13.70;99.90;;;;;;5092225;28;25090;-72
2023/07/29 10:11:10;;;;;;;;;;;13.70;99.90;;;;;;5094933;28;25070;-71
2023/07/29 10:13:38;;;;;;;;;;;13.80;99.90;;;;;;5096686;28;19912;-71
2023/07/29 10:16:05;;;;;;;;;;;13.80;99.90;;;;;;5078385;28;24052;-72
2023/07/29 10:18:33;;;;;;;;;;;13.70;99.90;;;;;;5096531;28;19981;-72
2023/07/29 10:21:00;;;;;;;;;;;13.70;99.90;;;;;;5096734;28;20494;-72
2023/07/29 10:23:28;;;;;;;;;;;13.60;99.90;;;;;;5097181;28;20027;-72
2023/07/29 10:26:10;;;;;;;;;;;13.60;99.90;;;;;;5096239;28;19911;-72
2023/07/29 10:28:41;;;;;;;;;;;13.70;99.90;;;;;;5096855;28;19923;-72
2023/07/29 10:31:12;;;;;;;;;;;13.60;99.90;;;;;;5095763;28;20657;-71
2023/07/29 10:33:39;;;;;;;;;;;13.40;99.90;;;;;;5097074;28;20051;-71
2023/07/29 10:36:06;;;;;;;;;;;13.40;99.90;;;;;;5096854;28;19904;-72
2023/07/29 10:38:33;;;;;;;;;;;13.40;99.90;;;;;;5077453;28;19944;-73
2023/07/29 10:41:02;;;;;;;;;;;13.40;99.90;;;;;;5095950;28;19973;-71
2023/07/29 10:43:37;;;;;;;;;;;13.40;99.90;;;;;;5093538;28;19991;-72
2023/07/29 10:46:19;;;;;;;;;;;13.40;99.90;;;;;;5092828;28;19987;-72
2023/07/29 10:48:53;;;;;;;;;;;13.30;99.90;;;;;;5092214;28;25057;-72
2023/07/29 10:51:29;;;;;;;;;;;13.30;99.90;;;;;;5064892;28;20473;-72
2023/07/29 10:53:57;;;;;;;;;;;13.30;99.90;;;;;;5082482;28;20023;-71
2023/07/29 10:56:28;;;;;;;;;;;13.20;99.90;;;;;;5077993;28;19947;-72
2023/07/29 10:59:24;;;;;;;;;;;13.20;99.90;;;;;;5089107;28;19956;-71
2023/07/29 11:01:52;;;;;;;;;;;13.20;99.90;;;;;;5075373;28;20222;-72
2023/07/29 11:04:26;;;;;;;;;;;13.10;99.90;;;;;;5078167;28;20319;-72
2023/07/29 11:07:07;;;;;;;;;;;13.00;99.90;;;;;;5095930;28;19904;-72
2023/07/29 11:09:52;;;;;;;;;;;13.00;99.90;;;;;;5095691;28;19916;-71
2023/07/29 11:12:34;;;;;;;;;;;13.00;99.90;;;;;;5095862;28;19931;-71
2023/07/29 11:15:05;;;;;;;;;;;12.90;99.90;;;;;;5096384;28;19905;-73
2023/07/29 11:17:36;;;;;;;;;;;12.80;99.90;;;;;;5095653;28;24101;-71
2023/07/29 11:20:03;;;;;;;;;;;12.80;99.90;;;;;;5096012;28;20287;-72
2023/07/29 11:22:30;;;;;;;;;;;12.80;99.90;;;;;;5096321;28;19911;-71
2023/07/29 11:24:57;;;;;;;;;;;12.80;99.90;;;;;;5095940;28;19914;-72
2023/07/29 11:27:24;;;;;;;;;;;12.80;99.90;;;;;;5095914;28;19911;-74
2023/07/29 11:29:57;;;;;;;;;;;12.70;99.90;;;;;;5095852;28;20357;-73
2023/07/29 11:32:24;;;;;;;;;;;12.70;99.90;;;;;;5084443;28;24068;-71
2023/07/29 11:34:51;;;;;;;;;;;12.80;99.90;;;;;;5071395;28;19904;-71
2023/07/29 11:37:20;;;;;;;;;;;12.80;99.90;;;;;;5087285;28;24112;-71
2023/07/29 11:39:51;;;;;;;;;;;12.70;99.90;;;;;;5077866;28;25077;-71
2023/07/29 11:42:17;;;;;;;;;;;12.70;99.90;;;;;;5080353;28;24065;-71
2023/07/29 11:44:44;;;;;;;;;;;12.60;99.90;;;;;;5087599;28;19916;-71
2023/07/29 11:47:12;;;;;;;;;;;12.60;99.90;;;;;;5079432;28;20313;-71
2023/07/29 11:49:40;;;;;;;;;;;12.50;99.90;;;;;;5077838;28;24061;-71
2023/07/29 11:52:11;;;;;;;;;;;12.50;99.90;;;;;;5073995;28;19912;-70
2023/07/29 11:54:41;;;;;;;;;;;12.40;99.90;;;;;;5084750;28;24117;-72
2023/07/29 11:57:09;;;;;;;;;;;12.40;99.90;;;;;;5095148;28;19908;-72
2023/07/29 11:59:36;;;;;;;;;;;12.40;99.90;;;;;;5095133;28;24084;-71
2023/07/29 12:02:10;;;;;;;;;;;12.30;99.90;;;;;;5094756;28;25177;-70
2023/07/29 12:04:37;;;;;;;;;;;12.20;99.90;;;;;;5076359;28;19919;-70
2023/07/29 12:07:08;;;;;;;;;;;12.10;99.90;;;;;;5095118;28;20400;-71
2023/07/29 12:09:35;;;;;;;;;;;12.10;99.90;;;;;;5093744;28;20004;-71
2023/07/29 12:12:06;;;;;;;;;;;12.10;99.90;;;;;;5094727;28;19912;-71
2023/07/29 12:14:33;;;;;;;;;;;12.10;99.90;;;;;;5091114;28;24074;-70
2023/07/29 12:17:04;;;;;;;;;;;12.00;99.90;;;;;;5094441;28;19908;-70
2023/07/29 12:19:34;;;;;;;;;;;12.00;99.90;;;;;;5094249;28;19908;-70
2023/07/29 12:22:05;;;;;;;;;;;12.00;99.90;;;;;;5075941;28;19911;-70
2023/07/29 12:24:33;;;;;;;;;;;11.90;99.90;;;;;;5094092;28;19908;-70
2023/07/29 12:27:00;;;;;;;;;;;11.90;99.90;;;;;;5093870;28;19974;-70
2023/07/29 12:29:28;;;;;;;;;;;11.90;99.90;;;;;;5093734;28;19920;-70
2023/07/29 12:32:02;;;;;;;;;;;12.00;99.90;;;;;;5093837;28;20381;-70
2023/07/29 12:34:29;;;;;;;;;;;11.90;99.90;;;;;;5094043;28;24081;-71
2023/07/29 12:36:57;;;;;;;;;;;11.90;99.90;;;;;;5094391;28;24060;-70
2023/07/29 12:39:25;;;;;;;;;;;11.80;99.90;;;;;;5075900;28;20357;-70
2023/07/29 12:41:53;;;;;;;;;;;11.80;99.90;;;;;;5094732;28;19908;-71
2023/07/29 12:44:20;;;;;;;;;;;11.70;99.90;;;;;;5071555;28;24080;-70
2023/07/29 12:46:47;;;;;;;;;;;11.70;99.90;;;;;;5093795;28;19954;-71
2023/07/29 12:49:14;;;;;;;;;;;11.70;99.90;;;;;;5093751;28;24089;-71
2023/07/29 12:51:41;;;;;;;;;;;11.70;99.90;;;;;;5093920;28;19915;-72
2023/07/29 12:54:08;;;;;;;;;;;11.60;99.90;;;;;;5075851;28;19907;-72
2023/07/29 12:56:35;;;;;;;;;;;11.60;99.90;;;;;;5094676;28;19904;-72
2023/07/29 12:59:03;;;;;;;;;;;11.60;99.90;;;;;;5093625;28;19953;-72
2023/07/29 13:01:30;;;;;;;;;;;11.60;99.90;;;;;;5093186;28;24183;-72
2023/07/29 13:03:57;;;;;;;;;;;11.70;99.90;;;;;;5093501;28;19911;-70
2023/07/29 13:06:24;;;;;;;;;;;11.60;99.90;;;;;;5093384;28;19914;-70
2023/07/29 13:08:51;;;;;;;;;;;11.60;99.90;;;;;;5093154;28;20261;-71
2023/07/29 13:11:18;;;;;;;;;;;11.50;99.90;;;;;;5093571;28;19908;-70
2023/07/29 13:13:45;;;;;;;;;;;11.50;99.90;;;;;;5075146;28;19908;-71
2023/07/29 13:16:12;;;;;;;;;;;11.50;99.90;;;;;;5093393;28;20351;-71
2023/07/29 13:18:40;;;;;;;;;;;11.50;99.90;;;;;;5093579;28;19962;-71
2023/07/29 13:21:07;;;;;;;;;;;11.40;99.90;;;;;;5092538;28;19955;-71
2023/07/29 13:23:34;;;;;;;;;;;11.40;99.90;;;;;;5075575;28;19904;-70
2023/07/29 13:26:01;;;;;;;;;;;11.40;99.90;;;;;;5093041;28;19915;-70
2023/07/29 13:28:28;;;;;;;;;;;11.30;99.90;;;;;;5074756;28;19966;-71
2023/07/29 13:30:55;;;;;;;;;;;11.30;99.90;;;;;;5092945;28;19907;-71
2023/07/29 13:33:22;;;;;;;;;;;11.30;99.90;;;;;;5092953;28;19955;-71
2023/07/29 13:35:49;;;;;;;;;;;11.30;99.90;;;;;;5093267;28;24065;-70
2023/07/29 13:38:16;;;;;;;;;;;11.30;99.90;;;;;;5093307;28;19904;-70
2023/07/29 13:40:43;;;;;;;;;;;11.20;99.90;;;;;;5093109;28;19927;-71
2023/07/29 13:43:10;;;;;;;;;;;11.20;99.90;;;;;;5072022;28;19917;-70
2023/07/29 13:45:37;;;;;;;;;;;11.20;99.90;;;;;;5073132;28;19904;-71
2023/07/29 13:48:04;;;;;;;;;;;11.20;99.90;;;;;;5073340;28;20003;-71
2023/07/29 13:50:31;;;;;;;;;;;11.10;99.90;;;;;;5073276;28;20277;-71
2023/07/29 13:52:58;;;;;;;;;;;11.00;99.90;;;;;;5072157;28;19965;-71
2023/07/29 13:55:24;;;;;;;;;;;11.00;99.90;;;;;;5073416;28;19927;-72
2023/07/29 13:57:52;;;;;;;;;;;11.00;99.90;;;;;;5073367;28;19904;-72
2023/07/29 14:00:19;;;;;;;;;;;11.00;99.90;;;;;;5072816;28;19932;-72
2023/07/29 14:02:46;;;;;;;;;;;11.00;99.90;;;;;;5073476;28;19905;-71
2023/07/29 14:05:14;;;;;;;;;;;11.00;99.90;;;;;;5073291;28;20243;-70
2023/07/29 14:07:40;;;;;;;;;;;11.00;99.90;;;;;;5073082;28;25059;-71
2023/07/29 14:10:07;;;;;;;;;;;11.00;99.90;;;;;;5073189;28;19916;-72
2023/07/29 14:12:34;;;;;;;;;;;11.00;99.90;;;;;;5073327;28;19904;-71
2023/07/29 14:15:02;;;;;;;;;;;11.10;99.90;;;;;;5073080;28;19999;-71
2023/07/29 14:17:29;;;;;;;;;;;11.00;99.90;;;;;;5072675;28;19912;-71
2023/07/29 14:19:55;;;;;;;;;;;11.00;99.90;;;;;;5073097;28;19956;-71
2023/07/29 14:22:22;;;;;;;;;;;11.00;99.90;;;;;;5072926;28;19950;-71
2023/07/29 14:24:49;;;;;;;;;;;10.90;99.90;;;;;;5073073;28;24111;-70